Terminal Aerodrome Forecast
Issued by NWS

Home | Current Version | Previous Version | Text Only | Print | Product List | Glossary On
Versions: 1 2 3 4 5 6 7 8 9 10 11 12 13 14
000
FTUS45 KABQ 190500
TAFROW
TAF
KROW 190526Z 1906/2006 17007KT P6SM BKN120
     FM190900 15006KT P6SM VCSH BKN050 OVC080
     FM191200 17009KT P6SM SCT080 BKN100
     FM191800 16013KT P6SM VCSH SCT050 BKN080
     FM200300 VRB04KT P6SM BKN100=

USA.gov is the U.S. government's official web portal to all federal, state and local government web resources and services.